Time;durP1;ratioP1;P1;durP2;ratioP2;P2;SDS_P1;SDS_P2;PMS_P1;PMS_P2;Temp;Humidity;BMP_temperature;BMP_pressure;BME280_temperature;BME280_humidity;BME280_pressure;Samples;Min_cycle;Max_cycle;Signal;HPM_P1;HPM_P2
2023/06/25 00:01:38;;;;;;;23.67;16.50;;;;;;;;;;4970005;28;20331;-61
2023/06/25 00:04:04;;;;;;;26.30;17.27;;;;;;;;;;4971011;28;20055;-61
2023/06/25 00:06:30;;;;;;;21.23;17.10;;;;;;;;;;4971188;28;20097;-61
2023/06/25 00:08:56;;;;;;;23.47;18.13;;;;;;;;;;4970854;28;20409;-61
2023/06/25 00:11:22;;;;;;;24.30;19.13;;;;;;;;;;4971102;28;20050;-61
2023/06/25 00:13:48;;;;;;;23.03;18.37;;;;;;;;;;4971237;28;20105;-61
2023/06/25 00:16:14;;;;;;;23.43;17.43;;;;;;;;;;4970371;28;20046;-61
2023/06/25 00:18:40;;;;;;;22.97;16.77;;;;;;;;;;4970914;28;20058;-62
2023/06/25 00:21:06;;;;;;;21.20;16.50;;;;;;;;;;4971069;28;21086;-61
2023/06/25 00:23:33;;;;;;;22.67;15.77;;;;;;;;;;4970834;28;20050;-62
2023/06/25 00:25:59;;;;;;;23.33;17.33;;;;;;;;;;4970300;28;20137;-61
2023/06/25 00:28:26;;;;;;;21.53;16.47;;;;;;;;;;4971016;28;20544;-61
2023/06/25 00:30:52;;;;;;;19.67;16.43;;;;;;;;;;4970737;28;20093;-62
2023/06/25 00:33:18;;;;;;;20.90;16.10;;;;;;;;;;4970326;28;20062;-61
2023/06/25 00:35:50;;;;;;;23.27;17.30;;;;;;;;;;4970575;28;20121;-62
2023/06/25 00:38:16;;;;;;;25.47;17.77;;;;;;;;;;4970332;28;20102;-61
2023/06/25 00:40:42;;;;;;;24.07;17.87;;;;;;;;;;4970424;28;20393;-61
2023/06/25 00:43:08;;;;;;;27.47;18.30;;;;;;;;;;4970677;28;20155;-61
2023/06/25 00:45:34;;;;;;;22.93;17.33;;;;;;;;;;4970278;28;20412;-61
2023/06/25 00:48:01;;;;;;;22.17;17.20;;;;;;;;;;4970316;28;20101;-61
2023/06/25 00:50:27;;;;;;;23.10;16.60;;;;;;;;;;4970146;28;20061;-61
2023/06/25 00:52:56;;;;;;;26.17;17.97;;;;;;;;;;4970143;28;20390;-62
2023/06/25 00:55:23;;;;;;;25.00;18.40;;;;;;;;;;4970183;28;20050;-62
2023/06/25 00:57:52;;;;;;;23.87;17.20;;;;;;;;;;4970367;28;20125;-61
2023/06/25 01:00:18;;;;;;;26.57;17.53;;;;;;;;;;4970355;28;20050;-61
2023/06/25 01:03:03;;;;;;;25.47;18.60;;;;;;;;;;4970525;28;20162;-62
2023/06/25 01:05:32;;;;;;;28.93;17.47;;;;;;;;;;4969837;28;20047;-61
2023/06/25 01:07:59;;;;;;;27.13;19.23;;;;;;;;;;4970161;28;20090;-61
2023/06/25 01:10:26;;;;;;;26.20;19.17;;;;;;;;;;4970194;28;20051;-61
2023/06/25 01:12:54;;;;;;;23.77;18.07;;;;;;;;;;4968009;28;20154;-61
2023/06/25 01:15:20;;;;;;;27.97;18.70;;;;;;;;;;4968647;28;20050;-61
2023/06/25 01:17:48;;;;;;;21.67;16.60;;;;;;;;;;4951663;28;20050;-61
2023/06/25 01:20:15;;;;;;;29.03;18.07;;;;;;;;;;4967502;28;20051;-61
2023/06/25 01:22:41;;;;;;;27.07;18.57;;;;;;;;;;4968897;28;20473;-61
2023/06/25 01:25:08;;;;;;;27.53;20.50;;;;;;;;;;4966267;28;20094;-61
2023/06/25 01:27:34;;;;;;;28.73;19.30;;;;;;;;;;4968599;28;20074;-61
2023/06/25 01:30:01;;;;;;;24.53;18.03;;;;;;;;;;4970097;28;20038;-61
2023/06/25 01:32:27;;;;;;;36.20;17.77;;;;;;;;;;4969550;28;20506;-62
2023/06/25 01:34:54;;;;;;;25.93;18.57;;;;;;;;;;4969763;28;20083;-61
2023/06/25 01:37:20;;;;;;;25.67;18.30;;;;;;;;;;4969401;28;20046;-61
2023/06/25 01:39:50;;;;;;;26.17;18.53;;;;;;;;;;4969850;28;20446;-61
2023/06/25 01:42:17;;;;;;;30.70;18.33;;;;;;;;;;4969729;28;20050;-61
2023/06/25 01:44:43;;;;;;;29.77;19.70;;;;;;;;;;4969804;28;20051;-61
2023/06/25 01:47:09;;;;;;;30.83;19.77;;;;;;;;;;4969335;28;20424;-61
2023/06/25 01:49:35;;;;;;;33.93;20.90;;;;;;;;;;4969224;28;20058;-61
2023/06/25 01:52:02;;;;;;;28.67;19.97;;;;;;;;;;4969758;28;20047;-61
2023/06/25 01:54:28;;;;;;;31.50;20.23;;;;;;;;;;4969272;28;20058;-61
2023/06/25 01:56:54;;;;;;;36.30;20.60;;;;;;;;;;4969712;28;20057;-61
2023/06/25 01:59:20;;;;;;;27.53;20.03;;;;;;;;;;4969542;28;20043;-61
2023/06/25 02:01:46;;;;;;;31.87;19.67;;;;;;;;;;4969378;28;20047;-61
2023/06/25 02:04:12;;;;;;;30.53;20.33;;;;;;;;;;4969805;28;20046;-61
2023/06/25 02:06:38;;;;;;;32.50;21.00;;;;;;;;;;4969585;28;20053;-62
2023/06/25 02:09:04;;;;;;;28.03;19.37;;;;;;;;;;4969267;28;20050;-61
2023/06/25 02:11:30;;;;;;;30.53;19.93;;;;;;;;;;4969550;28;20051;-61
2023/06/25 02:13:56;;;;;;;32.77;20.27;;;;;;;;;;4969358;28;20520;-61
2023/06/25 02:16:22;;;;;;;32.40;19.53;;;;;;;;;;4969290;28;20047;-61
2023/06/25 02:18:49;;;;;;;30.93;20.57;;;;;;;;;;4969484;28;20047;-61
2023/06/25 02:21:16;;;;;;;32.60;20.43;;;;;;;;;;4969534;28;20513;-61
2023/06/25 02:23:42;;;;;;;30.83;19.60;;;;;;;;;;4969030;28;20130;-61
2023/06/25 02:26:09;;;;;;;31.30;21.00;;;;;;;;;;4971676;28;20153;-62
2023/06/25 02:28:35;;;;;;;34.03;19.80;;;;;;;;;;4972547;28;20416;-61
2023/06/25 02:31:01;;;;;;;28.30;18.60;;;;;;;;;;4972618;28;20054;-61
2023/06/25 02:33:27;;;;;;;30.97;20.73;;;;;;;;;;4972788;28;20042;-61
2023/06/25 02:35:53;;;;;;;35.00;23.20;;;;;;;;;;4972883;28;20057;-61
2023/06/25 02:38:19;;;;;;;34.37;22.93;;;;;;;;;;4972689;28;20213;-61
2023/06/25 02:40:45;;;;;;;38.20;24.03;;;;;;;;;;4972394;28;20065;-61
2023/06/25 02:43:11;;;;;;;39.77;22.83;;;;;;;;;;4972904;28;20047;-61
2023/06/25 02:45:37;;;;;;;43.00;23.73;;;;;;;;;;4972775;28;20661;-61
2023/06/25 02:48:03;;;;;;;43.37;24.27;;;;;;;;;;4972518;28;20043;-61
2023/06/25 02:50:29;;;;;;;37.03;22.27;;;;;;;;;;4972540;28;20053;-61
2023/06/25 02:52:56;;;;;;;40.57;24.43;;;;;;;;;;4972891;28;20047;-61
2023/06/25 02:55:22;;;;;;;37.30;22.83;;;;;;;;;;4971582;28;20457;-61
2023/06/25 02:57:48;;;;;;;36.93;22.50;;;;;;;;;;4972715;28;20047;-61
2023/06/25 03:00:14;;;;;;;38.03;22.57;;;;;;;;;;4972548;28;20042;-61
2023/06/25 03:02:40;;;;;;;33.20;21.90;;;;;;;;;;4972175;28;20050;-62
2023/06/25 03:05:06;;;;;;;32.37;21.03;;;;;;;;;;4972271;28;20051;-61
2023/06/25 03:07:32;;;;;;;30.63;20.07;;;;;;;;;;4972125;28;20055;-61
2023/06/25 03:09:58;;;;;;;32.07;19.80;;;;;;;;;;4972317;28;20417;-61
2023/06/25 03:12:24;;;;;;;33.17;21.80;;;;;;;;;;4972277;28;20035;-61
2023/06/25 03:14:50;;;;;;;30.40;20.47;;;;;;;;;;4971822;28;20054;-61
2023/06/25 03:17:16;;;;;;;29.10;18.90;;;;;;;;;;4972385;28;20042;-61
2023/06/25 03:19:42;;;;;;;23.43;16.27;;;;;;;;;;4972032;28;20047;-61
2023/06/25 03:22:08;;;;;;;23.17;16.33;;;;;;;;;;4972010;28;20121;-61
2023/06/25 03:24:34;;;;;;;23.53;17.33;;;;;;;;;;4971184;28;20046;-61
2023/06/25 03:27:00;;;;;;;26.80;17.53;;;;;;;;;;4971761;28;20493;-61
2023/06/25 03:29:26;;;;;;;24.13;17.63;;;;;;;;;;4971859;28;20102;-61
2023/06/25 03:31:52;;;;;;;23.13;15.53;;;;;;;;;;4971559;28;20078;-61
2023/06/25 03:34:18;;;;;;;27.83;16.87;;;;;;;;;;4971784;28;20050;-61
2023/06/25 03:36:44;;;;;;;24.77;15.63;;;;;;;;;;4971617;28;20082;-61
2023/06/25 03:39:10;;;;;;;27.23;16.13;;;;;;;;;;4970899;28;20417;-61
2023/06/25 03:41:36;;;;;;;25.77;17.33;;;;;;;;;;4971248;28;20073;-61
2023/06/25 03:44:02;;;;;;;23.77;16.40;;;;;;;;;;4971725;28;20493;-61
2023/06/25 03:46:28;;;;;;;27.93;17.20;;;;;;;;;;4971188;28;20050;-61
2023/06/25 03:48:54;;;;;;;22.07;16.53;;;;;;;;;;4971343;28;20050;-61
2023/06/25 03:51:20;;;;;;;29.63;17.87;;;;;;;;;;4971630;28;20175;-61
2023/06/25 03:53:46;;;;;;;25.27;16.53;;;;;;;;;;4971500;28;20066;-61
2023/06/25 03:56:12;;;;;;;28.40;18.63;;;;;;;;;;4970738;28;20131;-61
2023/06/25 03:58:38;;;;;;;27.53;16.13;;;;;;;;;;4971186;28;20552;-61
2023/06/25 04:01:04;;;;;;;25.33;17.27;;;;;;;;;;4971687;28;20066;-61
2023/06/25 04:03:30;;;;;;;24.70;14.87;;;;;;;;;;4970973;28;20489;-61
2023/06/25 04:05:56;;;;;;;23.13;16.53;;;;;;;;;;4971204;28;20105;-61
2023/06/25 04:08:22;;;;;;;23.97;15.97;;;;;;;;;;4971084;28;20063;-61
2023/06/25 04:10:49;;;;;;;24.43;15.53;;;;;;;;;;4970609;28;20059;-61
2023/06/25 04:13:15;;;;;;;20.47;16.30;;;;;;;;;;4971154;28;20055;-61
2023/06/25 04:15:41;;;;;;;23.17;16.73;;;;;;;;;;4970941;28;20462;-61
2023/06/25 04:18:07;;;;;;;23.03;16.40;;;;;;;;;;4970991;28;20161;-63
2023/06/25 04:20:33;;;;;;;24.00;16.57;;;;;;;;;;4953980;28;20051;-63
2023/06/25 04:22:59;;;;;;;23.37;16.07;;;;;;;;;;4970216;28;20497;-61
2023/06/25 04:25:25;;;;;;;23.33;16.10;;;;;;;;;;4971210;28;20045;-61
2023/06/25 04:27:51;;;;;;;24.70;16.43;;;;;;;;;;4971076;28;20569;-60
2023/06/25 04:30:17;;;;;;;22.67;16.63;;;;;;;;;;4970725;28;20043;-61
2023/06/25 04:32:43;;;;;;;21.40;15.50;;;;;;;;;;4970998;28;20050;-61
2023/06/25 04:35:09;;;;;;;25.70;16.60;;;;;;;;;;4970970;28;20046;-61
2023/06/25 04:37:35;;;;;;;24.07;16.00;;;;;;;;;;4971108;28;20501;-61
2023/06/25 04:40:05;;;;;;;21.83;15.47;;;;;;;;;;4970767;28;20102;-60
2023/06/25 04:42:31;;;;;;;23.03;16.97;;;;;;;;;;4971208;28;20061;-61
2023/06/25 04:44:57;;;;;;;23.13;16.03;;;;;;;;;;4971130;28;20039;-61
2023/06/25 04:47:23;;;;;;;22.53;16.17;;;;;;;;;;4970293;28;20035;-61
2023/06/25 04:49:49;;;;;;;22.53;15.43;;;;;;;;;;4970661;28;20053;-61
2023/06/25 04:52:19;;;;;;;23.27;16.13;;;;;;;;;;4970569;28;20137;-60
2023/06/25 04:54:48;;;;;;;25.63;16.07;;;;;;;;;;4970817;28;20058;-61
2023/06/25 04:57:14;;;;;;;19.70;15.43;;;;;;;;;;4970918;28;20497;-61
2023/06/25 04:59:40;;;;;;;28.57;15.73;;;;;;;;;;4970716;28;20121;-62
2023/06/25 05:02:06;;;;;;;20.03;14.47;;;;;;;;;;4970482;28;20473;-61
2023/06/25 05:04:32;;;;;;;19.77;14.90;;;;;;;;;;4970795;28;20051;-61
2023/06/25 05:06:58;;;;;;;20.47;14.77;;;;;;;;;;4970580;28;20108;-62
2023/06/25 05:09:24;;;;;;;22.03;15.00;;;;;;;;;;4970505;28;20050;-61
2023/06/25 05:11:50;;;;;;;21.90;15.57;;;;;;;;;;4970941;28;20485;-61
2023/06/25 05:14:17;;;;;;;19.60;14.83;;;;;;;;;;4970126;28;20093;-61
2023/06/25 05:16:42;;;;;;;21.07;14.83;;;;;;;;;;4970347;28;20055;-61
2023/06/25 05:19:08;;;;;;;19.63;14.60;;;;;;;;;;4970615;28;20054;-61
2023/06/25 05:21:34;;;;;;;18.33;14.33;;;;;;;;;;4970421;28;20698;-61
2023/06/25 05:24:03;;;;;;;21.63;14.80;;;;;;;;;;4952105;28;20043;-61
2023/06/25 05:26:29;;;;;;;18.53;13.10;;;;;;;;;;4970007;28;20406;-61
2023/06/25 05:28:55;;;;;;;23.00;15.10;;;;;;;;;;4968503;28;20054;-61
2023/06/25 05:31:21;;;;;;;19.80;14.80;;;;;;;;;;4968633;28;20412;-62
2023/06/25 05:33:47;;;;;;;19.47;14.30;;;;;;;;;;4970346;28;20453;-61
2023/06/25 05:36:14;;;;;;;18.73;14.30;;;;;;;;;;4969736;28;20193;-61
2023/06/25 05:38:40;;;;;;;21.53;16.33;;;;;;;;;;4969839;28;20113;-61
2023/06/25 05:41:06;;;;;;;19.20;15.13;;;;;;;;;;4970113;28;20141;-62
2023/06/25 05:43:32;;;;;;;18.20;14.77;;;;;;;;;;4970244;28;20046;-61
2023/06/25 05:45:58;;;;;;;22.23;16.57;;;;;;;;;;4952741;28;20501;-62
2023/06/25 05:48:24;;;;;;;15.07;12.97;;;;;;;;;;4952722;28;20038;-61
2023/06/25 05:50:49;;;;;;;19.57;14.80;;;;;;;;;;4969806;28;20049;-62
2023/06/25 05:53:15;;;;;;;21.13;15.87;;;;;;;;;;4969966;28;20050;-61
2023/06/25 05:55:42;;;;;;;20.40;15.70;;;;;;;;;;4969635;28;20478;-62
2023/06/25 05:58:08;;;;;;;20.60;14.60;;;;;;;;;;4969466;28;20093;-62
2023/06/25 06:00:34;;;;;;;19.03;16.23;;;;;;;;;;4971896;28;20086;-62
2023/06/25 06:03:00;;;;;;;21.73;15.20;;;;;;;;;;4974111;28;20129;-61
2023/06/25 06:05:26;;;;;;;20.47;14.23;;;;;;;;;;4973957;28;20090;-62
2023/06/25 06:07:52;;;;;;;17.07;14.67;;;;;;;;;;4973319;28;20256;-61
2023/06/25 06:10:18;;;;;;;18.77;15.20;;;;;;;;;;4973809;28;20540;-61
2023/06/25 06:12:44;;;;;;;16.90;14.90;;;;;;;;;;4973982;28;20061;-61
2023/06/25 06:15:10;;;;;;;19.43;15.00;;;;;;;;;;4973681;28;20050;-61
2023/06/25 06:17:36;;;;;;;19.13;14.73;;;;;;;;;;4973485;28;20135;-62
2023/06/25 06:20:03;;;;;;;19.50;15.67;;;;;;;;;;4973655;28;20137;-62
2023/06/25 06:22:29;;;;;;;19.47;15.43;;;;;;;;;;4973071;28;20651;-62
2023/06/25 06:24:55;;;;;;;18.90;14.77;;;;;;;;;;4973323;28;20057;-61
2023/06/25 06:27:21;;;;;;;18.83;16.10;;;;;;;;;;4973479;28;20489;-62
2023/06/25 06:29:47;;;;;;;18.53;15.57;;;;;;;;;;4971610;28;20046;-62
2023/06/25 06:32:13;;;;;;;20.23;15.90;;;;;;;;;;4972140;28;20047;-61
2023/06/25 06:34:41;;;;;;;19.60;16.17;;;;;;;;;;4953854;28;20086;-62
2023/06/25 06:37:07;;;;;;;18.43;15.63;;;;;;;;;;4971397;28;20058;-62
2023/06/25 06:39:34;;;;;;;20.17;16.40;;;;;;;;;;4971950;28;20054;-61
2023/06/25 06:41:59;;;;;;;18.30;16.27;;;;;;;;;;4971728;28;20508;-61
2023/06/25 06:44:25;;;;;;;17.73;15.00;;;;;;;;;;4969915;28;20057;-61
2023/06/25 06:46:52;;;;;;;16.70;14.60;;;;;;;;;;4971427;28;20624;-62
2023/06/25 06:49:19;;;;;;;18.13;16.23;;;;;;;;;;4972217;28;20084;-62
2023/06/25 06:51:45;;;;;;;18.73;16.73;;;;;;;;;;4972557;28;20054;-62
2023/06/25 06:54:11;;;;;;;20.37;16.93;;;;;;;;;;4971974;28;20524;-61
2023/06/25 06:56:38;;;;;;;17.77;15.93;;;;;;;;;;4972127;28;20093;-61
2023/06/25 06:59:05;;;;;;;20.10;16.03;;;;;;;;;;4972254;28;20178;-61
2023/06/25 07:01:31;;;;;;;20.13;15.23;;;;;;;;;;4972286;28;20058;-61
2023/06/25 07:03:57;;;;;;;17.77;14.63;;;;;;;;;;4971687;28;20039;-61
2023/06/25 07:06:23;;;;;;;17.53;15.77;;;;;;;;;;4971826;28;20047;-62
2023/06/25 07:08:49;;;;;;;22.40;14.80;;;;;;;;;;4972040;28;20061;-61
2023/06/25 07:11:16;;;;;;;20.43;14.80;;;;;;;;;;4971618;28;20054;-61
2023/06/25 07:13:43;;;;;;;21.30;14.73;;;;;;;;;;4972376;28;20073;-61
2023/06/25 07:16:09;;;;;;;19.20;15.40;;;;;;;;;;4991503;28;20143;-61
2023/06/25 07:18:35;;;;;;;17.87;15.17;;;;;;;;;;4990448;28;20042;-61
2023/06/25 07:21:02;;;;;;;18.77;16.80;;;;;;;;;;4974369;28;20539;-61
2023/06/25 07:23:28;;;;;;;17.23;15.43;;;;;;;;;;4961209;28;20047;-61
2023/06/25 07:25:54;;;;;;;17.80;14.87;;;;;;;;;;4958671;28;20054;-61
2023/06/25 07:28:20;;;;;;;16.40;14.37;;;;;;;;;;4971869;28;20039;-61
2023/06/25 07:30:46;;;;;;;17.60;15.60;;;;;;;;;;4971518;28;20458;-61
2023/06/25 07:33:12;;;;;;;18.37;14.50;;;;;;;;;;4971804;28;20051;-61
2023/06/25 07:35:38;;;;;;;13.63;12.20;;;;;;;;;;4971568;28;20055;-61
2023/06/25 07:38:04;;;;;;;14.20;12.33;;;;;;;;;;4968998;28;20134;-62
2023/06/25 07:40:30;;;;;;;16.10;12.93;;;;;;;;;;4962963;28;20043;-62
2023/06/25 07:42:56;;;;;;;15.37;12.67;;;;;;;;;;4951525;28;20057;-61
2023/06/25 07:45:22;;;;;;;15.87;13.83;;;;;;;;;;4965748;28;20089;-61
2023/06/25 07:47:48;;;;;;;14.80;12.67;;;;;;;;;;4970833;28;20057;-61
2023/06/25 07:50:14;;;;;;;14.67;13.17;;;;;;;;;;4958847;28;20094;-62
2023/06/25 07:52:40;;;;;;;12.70;10.80;;;;;;;;;;4953287;28;20098;-62
2023/06/25 07:55:06;;;;;;;14.45;12.15;;;;;;;;;;4953208;28;20856;-62
2023/06/25 07:57:32;;;;;;;12.15;10.90;;;;;;;;;;4970521;28;20556;-62
2023/06/25 07:59:58;;;;;;;13.50;12.13;;;;;;;;;;4969788;28;20047;-62
2023/06/25 08:02:24;;;;;;;13.52;10.70;;;;;;;;;;4968279;28;20070;-62
2023/06/25 08:04:50;;;;;;;12.70;11.40;;;;;;;;;;4970540;28;20039;-62
2023/06/25 08:07:16;;;;;;;18.70;11.50;;;;;;;;;;4969825;28;20556;-62
2023/06/25 08:09:43;;;;;;;11.70;10.50;;;;;;;;;;4969545;28;20055;-63
2023/06/25 08:12:09;;;;;;;13.80;10.32;;;;;;;;;;4964885;28;20043;-63
2023/06/25 08:14:35;;;;;;;12.57;10.65;;;;;;;;;;4951344;29;20501;-62
2023/06/25 08:17:01;;;;;;;13.65;10.82;;;;;;;;;;4957953;28;20106;-62
2023/06/25 08:19:27;;;;;;;10.43;9.32;;;;;;;;;;4969942;28;20408;-62
2023/06/25 08:21:53;;;;;;;11.23;8.85;;;;;;;;;;4963865;28;20094;-62
2023/06/25 08:24:19;;;;;;;11.60;9.45;;;;;;;;;;4969742;28;20051;-62
2023/06/25 08:26:45;;;;;;;9.63;7.95;;;;;;;;;;4970447;28;20039;-63
2023/06/25 08:29:12;;;;;;;12.50;10.32;;;;;;;;;;4955089;28;20039;-62
2023/06/25 08:31:38;;;;;;;12.23;9.93;;;;;;;;;;4960247;28;20062;-62
2023/06/25 08:34:04;;;;;;;11.35;9.98;;;;;;;;;;4967780;28;20041;-63
2023/06/25 08:36:30;;;;;;;9.50;8.10;;;;;;;;;;4970211;28;20149;-62
2023/06/25 08:38:56;;;;;;;10.55;9.02;;;;;;;;;;4968547;28;20054;-62
2023/06/25 08:41:22;;;;;;;8.82;6.70;;;;;;;;;;4970126;28;20470;-62
2023/06/25 08:43:47;;;;;;;8.70;6.82;;;;;;;;;;4969518;28;20050;-63
2023/06/25 08:46:14;;;;;;;8.45;7.55;;;;;;;;;;4969672;28;20154;-62
2023/06/25 08:48:40;;;;;;;8.73;7.32;;;;;;;;;;4968914;28;20128;-63
2023/06/25 08:51:32;;;;;;;5.20;4.70;;;;;;;;;;4969178;28;20865;-62
2023/06/25 08:53:58;;;;;;;6.47;5.18;;;;;;;;;;4959793;28;20058;-62
2023/06/25 08:56:24;;;;;;;7.20;6.50;;;;;;;;;;4970047;28;20062;-62
2023/06/25 08:58:50;;;;;;;8.85;6.95;;;;;;;;;;4970288;28;20054;-62
2023/06/25 09:01:18;;;;;;;9.70;5.93;;;;;;;;;;4969304;28;20094;-62
2023/06/25 09:03:44;;;;;;;13.63;8.40;;;;;;;;;;4969658;28;20480;-62
2023/06/25 09:06:14;;;;;;;9.50;8.10;;;;;;;;;;4970004;28;20267;-63
2023/06/25 09:08:41;;;;;;;8.50;7.60;;;;;;;;;;4969424;28;20071;-63
2023/06/25 09:11:07;;;;;;;11.90;7.43;;;;;;;;;;4969981;28;20113;-63
2023/06/25 09:13:33;;;;;;;12.55;7.53;;;;;;;;;;4968696;28;20054;-62
2023/06/25 09:16:03;;;;;;;8.38;7.05;;;;;;;;;;4968937;28;20053;-63
2023/06/25 09:18:29;;;;;;;8.18;7.35;;;;;;;;;;4967363;28;20050;-62
2023/06/25 09:20:56;;;;;;;9.75;6.63;;;;;;;;;;4969564;28;20043;-62
2023/06/25 09:23:23;;;;;;;8.30;6.22;;;;;;;;;;4961186;28;20164;-62
2023/06/25 09:25:50;;;;;;;7.13;5.93;;;;;;;;;;4959046;28;20057;-62
2023/06/25 09:28:16;;;;;;;8.85;7.90;;;;;;;;;;4962851;28;20047;-63
2023/06/25 09:30:42;;;;;;;9.75;6.88;;;;;;;;;;4950066;28;20075;-63
2023/06/25 09:33:09;;;;;;;8.65;5.20;;;;;;;;;;4949570;29;21110;-63
2023/06/25 09:35:36;;;;;;;7.82;4.78;;;;;;;;;;4949737;29;20051;-63
2023/06/25 09:38:02;;;;;;;7.00;5.82;;;;;;;;;;4949740;29;20420;-63
2023/06/25 09:40:28;;;;;;;7.43;5.53;;;;;;;;;;4949065;29;20051;-63
2023/06/25 09:42:55;;;;;;;9.35;6.47;;;;;;;;;;4950020;29;20079;-63
2023/06/25 09:45:22;;;;;;;10.13;6.40;;;;;;;;;;4949965;29;20055;-63
2023/06/25 09:47:49;;;;;;;10.52;6.90;;;;;;;;;;4932540;29;20051;-63
2023/06/25 09:50:18;;;;;;;8.60;6.10;;;;;;;;;;4949417;29;20490;-63
2023/06/25 09:52:48;;;;;;;11.00;6.10;;;;;;;;;;4949874;29;20098;-63
2023/06/25 09:55:15;;;;;;;8.35;5.60;;;;;;;;;;4949959;29;20099;-63
2023/06/25 09:57:42;;;;;;;11.02;7.63;;;;;;;;;;4949829;29;20425;-63
2023/06/25 10:00:09;;;;;;;12.90;6.72;;;;;;;;;;4949654;29;20087;-63
2023/06/25 10:02:35;;;;;;;8.70;6.20;;;;;;;;;;4949437;29;20047;-63
2023/06/25 10:05:01;;;;;;;7.72;5.78;;;;;;;;;;4949864;29;20062;-63
2023/06/25 10:07:27;;;;;;;10.15;7.30;;;;;;;;;;4949833;29;20476;-63
2023/06/25 10:09:54;;;;;;;9.85;5.75;;;;;;;;;;4949711;29;20143;-64
2023/06/25 10:12:20;;;;;;;6.93;5.00;;;;;;;;;;4949510;29;20059;-63
2023/06/25 10:14:47;;;;;;;7.07;5.07;;;;;;;;;;4949539;29;20153;-63
2023/06/25 10:17:14;;;;;;;6.00;4.78;;;;;;;;;;4950036;29;20087;-63
2023/06/25 10:19:50;;;;;;;6.90;4.70;;;;;;;;;;4949510;29;20090;-63
2023/06/25 10:22:21;;;;;;;7.78;4.90;;;;;;;;;;4949129;29;20090;-63
2023/06/25 10:24:50;;;;;;;8.50;4.85;;;;;;;;;;4949558;29;20422;-63
2023/06/25 10:27:25;;;;;;;6.72;4.72;;;;;;;;;;4949324;29;20051;-63
2023/06/25 10:29:52;;;;;;;9.00;4.80;;;;;;;;;;4949472;29;20509;-63
2023/06/25 10:32:20;;;;;;;9.23;4.97;;;;;;;;;;4948942;28;20474;-63
2023/06/25 10:34:53;;;;;;;5.32;4.20;;;;;;;;;;4949017;29;20371;-63
2023/06/25 10:37:19;;;;;;;6.32;4.15;;;;;;;;;;4949183;29;20089;-63
2023/06/25 10:39:45;;;;;;;6.65;4.78;;;;;;;;;;4950094;29;20048;-63
2023/06/25 10:42:13;;;;;;;5.50;4.30;;;;;;;;;;4949522;29;20043;-63
2023/06/25 10:44:40;;;;;;;5.13;4.10;;;;;;;;;;4948677;28;20048;-63
2023/06/25 10:47:07;;;;;;;6.53;4.15;;;;;;;;;;4952335;29;20498;-63
2023/06/25 10:49:34;;;;;;;7.68;3.95;;;;;;;;;;4952833;29;20046;-64
2023/06/25 10:52:00;;;;;;;5.18;4.03;;;;;;;;;;4952699;29;20043;-63
2023/06/25 10:54:26;;;;;;;4.00;3.60;;;;;;;;;;4952291;29;20074;-63
2023/06/25 10:57:08;;;;;;;5.03;3.90;;;;;;;;;;4952714;29;20532;-63
2023/06/25 10:59:34;;;;;;;5.35;4.00;;;;;;;;;;4952753;29;20051;-62
2023/06/25 11:02:10;;;;;;;6.78;3.63;;;;;;;;;;4957450;28;20078;-63
2023/06/25 11:04:36;;;;;;;7.28;4.05;;;;;;;;;;4971969;28;20194;-63
2023/06/25 11:07:02;;;;;;;7.43;4.25;;;;;;;;;;4971404;28;20503;-63
2023/06/25 11:09:28;;;;;;;4.22;3.70;;;;;;;;;;4971684;28;20153;-63
2023/06/25 11:11:55;;;;;;;4.32;3.70;;;;;;;;;;4970347;28;20043;-63
2023/06/25 11:14:21;;;;;;;6.05;4.85;;;;;;;;;;4971401;28;20047;-63
2023/06/25 11:16:47;;;;;;;7.07;4.28;;;;;;;;;;4971617;28;20493;-63
2023/06/25 11:19:13;;;;;;;5.45;4.65;;;;;;;;;;4971977;28;20047;-63
2023/06/25 11:21:39;;;;;;;5.80;5.18;;;;;;;;;;4964718;28;20492;-63
2023/06/25 11:24:07;;;;;;;6.13;4.50;;;;;;;;;;4969570;28;20046;-63
2023/06/25 11:26:38;;;;;;;5.80;4.38;;;;;;;;;;4960294;28;20047;-63
2023/06/25 11:29:11;;;;;;;6.72;4.22;;;;;;;;;;4955825;28;20049;-63
2023/06/25 11:31:52;;;;;;;4.18;3.78;;;;;;;;;;4970820;28;20102;-63
2023/06/25 11:34:24;;;;;;;7.22;5.05;;;;;;;;;;4970894;28;20793;-63
2023/06/25 11:36:50;;;;;;;5.53;4.47;;;;;;;;;;4970534;28;20038;-64
2023/06/25 11:39:17;;;;;;;5.20;4.57;;;;;;;;;;4967896;28;20058;-64
2023/06/25 11:41:43;;;;;;;6.68;4.13;;;;;;;;;;4968339;28;20042;-64
2023/06/25 11:44:19;;;;;;;6.53;4.57;;;;;;;;;;4971918;28;20198;-64
2023/06/25 11:46:53;;;;;;;5.47;4.60;;;;;;;;;;4970291;28;20069;-64
2023/06/25 11:49:20;;;;;;;6.28;4.50;;;;;;;;;;4969857;28;20038;-64
2023/06/25 11:51:46;;;;;;;9.00;4.57;;;;;;;;;;4972167;28;20082;-64
2023/06/25 11:54:12;;;;;;;6.97;4.97;;;;;;;;;;4970071;28;20493;-64
2023/06/25 11:56:38;;;;;;;5.05;4.55;;;;;;;;;;4969870;28;20059;-64
2023/06/25 11:59:04;;;;;;;6.80;4.57;;;;;;;;;;4970817;28;20051;-64
2023/06/25 12:01:30;;;;;;;4.78;4.28;;;;;;;;;;4971521;28;20035;-64
2023/06/25 12:03:56;;;;;;;5.05;4.28;;;;;;;;;;4960241;28;20459;-64
2023/06/25 12:06:23;;;;;;;5.35;4.53;;;;;;;;;;4952010;28;20062;-64
2023/06/25 12:08:49;;;;;;;5.68;4.28;;;;;;;;;;4951575;28;20522;-64
2023/06/25 12:11:15;;;;;;;9.25;5.07;;;;;;;;;;4951275;28;20055;-63
2023/06/25 12:13:41;;;;;;;4.97;4.47;;;;;;;;;;4949636;29;20047;-64
2023/06/25 12:16:07;;;;;;;6.03;4.43;;;;;;;;;;4950616;29;20051;-64
2023/06/25 12:18:33;;;;;;;5.45;4.18;;;;;;;;;;4951103;28;20043;-64
2023/06/25 12:20:59;;;;;;;6.30;4.68;;;;;;;;;;4963263;28;20046;-64
2023/06/25 12:23:25;;;;;;;7.63;4.82;;;;;;;;;;4954916;28;20105;-64
2023/06/25 12:25:51;;;;;;;8.02;4.78;;;;;;;;;;4948956;29;20776;-64
2023/06/25 12:28:17;;;;;;;5.45;4.57;;;;;;;;;;4949043;28;20039;-64
2023/06/25 12:30:43;;;;;;;7.80;4.38;;;;;;;;;;4940498;28;20074;-64
2023/06/25 12:33:08;;;;;;;8.93;4.78;;;;;;;;;;4951215;28;20450;-64
2023/06/25 12:35:35;;;;;;;5.72;4.57;;;;;;;;;;4949972;28;20051;-64
2023/06/25 12:38:01;;;;;;;8.10;4.60;;;;;;;;;;4949983;29;20516;-64
2023/06/25 12:40:27;;;;;;;5.07;3.85;;;;;;;;;;4949944;28;20422;-64
2023/06/25 12:42:56;;;;;;;4.82;4.15;;;;;;;;;;4950826;28;20387;-64
2023/06/25 12:45:22;;;;;;;6.38;4.07;;;;;;;;;;4949842;29;20537;-64
2023/06/25 12:47:48;;;;;;;4.38;3.80;;;;;;;;;;4950538;28;20054;-64
2023/06/25 12:50:15;;;;;;;4.57;4.13;;;;;;;;;;4949912;29;20042;-64
2023/06/25 12:52:41;;;;;;;5.85;3.95;;;;;;;;;;4950881;28;20043;-63
2023/06/25 12:55:08;;;;;;;4.43;3.78;;;;;;;;;;4949866;28;20417;-64
2023/06/25 12:57:34;;;;;;;6.57;3.72;;;;;;;;;;4949696;28;20047;-64
2023/06/25 13:00:04;;;;;;;5.05;4.20;;;;;;;;;;4950156;29;20043;-64
2023/06/25 13:02:30;;;;;;;4.25;3.85;;;;;;;;;;4950713;29;20102;-64
2023/06/25 13:04:56;;;;;;;4.72;3.83;;;;;;;;;;4951228;28;20074;-64
2023/06/25 13:07:23;;;;;;;5.20;3.33;;;;;;;;;;4952912;28;20520;-64
2023/06/25 13:09:49;;;;;;;5.30;4.03;;;;;;;;;;4966812;28;20047;-64
2023/06/25 13:12:15;;;;;;;6.18;4.10;;;;;;;;;;4967149;28;20133;-64
2023/06/25 13:14:43;;;;;;;4.10;3.70;;;;;;;;;;4965626;28;20272;-64
2023/06/25 13:17:10;;;;;;;6.03;3.70;;;;;;;;;;4957332;28;20101;-64
2023/06/25 13:19:38;;;;;;;5.25;4.25;;;;;;;;;;4968969;28;20051;-63
2023/06/25 13:22:04;;;;;;;4.85;4.35;;;;;;;;;;4968766;28;20050;-63
2023/06/25 13:24:30;;;;;;;5.60;4.93;;;;;;;;;;4970184;28;20035;-63
2023/06/25 13:26:56;;;;;;;6.00;4.40;;;;;;;;;;4969041;28;20062;-64
2023/06/25 13:29:22;;;;;;;4.57;4.18;;;;;;;;;;4969681;28;20055;-64
2023/06/25 13:31:49;;;;;;;5.63;4.38;;;;;;;;;;4970153;28;20046;-64
2023/06/25 13:34:15;;;;;;;6.18;4.65;;;;;;;;;;4968721;28;20047;-64
2023/06/25 13:36:41;;;;;;;6.97;5.15;;;;;;;;;;4964316;28;20547;-64
2023/06/25 13:39:07;;;;;;;5.43;4.93;;;;;;;;;;4950249;29;20178;-63
2023/06/25 13:41:33;;;;;;;5.13;4.63;;;;;;;;;;4965847;28;20065;-64
2023/06/25 13:43:59;;;;;;;8.45;4.82;;;;;;;;;;4967928;28;20121;-63
2023/06/25 13:46:25;;;;;;;5.25;4.75;;;;;;;;;;4963747;28;20035;-63
2023/06/25 13:48:51;;;;;;;5.47;4.82;;;;;;;;;;4950107;28;20043;-64
2023/06/25 13:51:17;;;;;;;6.00;4.60;;;;;;;;;;4967221;28;20042;-63
2023/06/25 13:53:43;;;;;;;5.38;4.80;;;;;;;;;;4969094;28;20042;-63
2023/06/25 13:56:10;;;;;;;4.28;3.88;;;;;;;;;;4969450;28;20509;-64
2023/06/25 13:58:36;;;;;;;7.07;4.20;;;;;;;;;;4969572;28;20086;-64
2023/06/25 14:01:03;;;;;;;6.18;4.22;;;;;;;;;;4968371;28;20414;-64
2023/06/25 14:03:30;;;;;;;7.25;4.35;;;;;;;;;;4949051;28;20055;-64
2023/06/25 14:05:56;;;;;;;4.97;4.32;;;;;;;;;;4950497;29;20048;-64
2023/06/25 14:08:22;;;;;;;5.95;4.28;;;;;;;;;;4949944;28;20403;-63
2023/06/25 14:10:48;;;;;;;5.72;4.50;;;;;;;;;;4949652;28;20056;-64
2023/06/25 14:13:14;;;;;;;6.30;4.35;;;;;;;;;;4948506;29;20044;-65
2023/06/25 14:15:41;;;;;;;4.78;4.15;;;;;;;;;;4956237;28;20062;-64
2023/06/25 14:18:07;;;;;;;7.13;4.40;;;;;;;;;;4959178;28;21004;-64
2023/06/25 14:20:33;;;;;;;6.43;4.53;;;;;;;;;;4950281;28;20122;-64
2023/06/25 14:22:59;;;;;;;7.70;4.10;;;;;;;;;;4969556;28;20046;-64
2023/06/25 14:25:25;;;;;;;5.32;4.30;;;;;;;;;;4961816;28;20051;-64